createdAt,value
2019-05-21T00:02:02.028Z,14.80
2019-05-21T00:04:30.731Z,14.80
2019-05-21T00:06:59.366Z,14.80
2019-05-21T00:09:28.073Z,14.90
2019-05-21T00:11:56.681Z,14.90
2019-05-21T00:14:25.467Z,14.90
2019-05-21T00:16:54.200Z,14.90
2019-05-21T00:19:22.841Z,14.80
2019-05-21T00:21:51.527Z,14.80
2019-05-21T00:24:20.308Z,14.80
2019-05-21T00:26:49.067Z,14.80
2019-05-21T00:29:53.947Z,14.80
2019-05-21T00:32:58.825Z,14.70
2019-05-21T00:36:03.558Z,14.80
2019-05-21T00:39:08.963Z,14.80
2019-05-21T00:42:03.117Z,14.70
2019-05-21T00:44:38.004Z,14.70
2019-05-21T00:47:08.710Z,14.70
2019-05-21T00:49:38.030Z,14.70
2019-05-21T00:52:09.023Z,14.70
2019-05-21T00:54:38.413Z,14.70
2019-05-21T00:57:07.091Z,14.70
2019-05-21T00:59:35.889Z,14.70
2019-05-21T01:02:04.618Z,14.70
2019-05-21T01:04:33.435Z,14.70
2019-05-21T01:07:02.371Z,14.70
2019-05-21T01:09:31.377Z,14.70
2019-05-21T01:12:00.128Z,14.70
2019-05-21T01:14:28.847Z,14.70
2019-05-21T01:16:57.463Z,14.70
2019-05-21T01:19:26.269Z,14.70
2019-05-21T01:21:55.098Z,14.70
2019-05-21T01:24:23.889Z,14.70
2019-05-21T01:26:52.711Z,14.70
2019-05-21T01:29:21.602Z,14.70
2019-05-21T01:31:50.239Z,14.70
2019-05-21T01:34:19.471Z,14.60
2019-05-21T01:36:48.180Z,14.60
2019-05-21T01:39:16.967Z,14.60
2019-05-21T01:41:45.557Z,14.60
2019-05-21T01:44:14.348Z,14.60
2019-05-21T01:46:43.279Z,14.60
2019-05-21T01:49:11.935Z,14.60
2019-05-21T01:51:40.799Z,14.60
2019-05-21T01:54:09.550Z,14.70
2019-05-21T01:56:38.227Z,14.70
2019-05-21T01:59:06.890Z,14.70
2019-05-21T02:01:35.677Z,14.60
2019-05-21T02:04:04.677Z,14.60
2019-05-21T02:06:33.518Z,14.60
2019-05-21T02:09:02.286Z,14.60
2019-05-21T02:11:31.031Z,14.60
2019-05-21T02:13:59.743Z,14.60
2019-05-21T02:16:28.351Z,14.60
2019-05-21T02:18:57.216Z,14.60
2019-05-21T02:21:25.943Z,14.60
2019-05-21T02:23:54.763Z,14.60
2019-05-21T02:26:23.327Z,14.60
2019-05-21T02:28:52.029Z,14.60
2019-05-21T02:31:20.631Z,14.60
2019-05-21T02:33:49.477Z,14.60
2019-05-21T02:36:20.137Z,14.60
2019-05-21T02:38:48.778Z,14.60
2019-05-21T02:41:17.438Z,14.60
2019-05-21T02:43:46.248Z,14.60
2019-05-21T02:46:15.144Z,14.60
2019-05-21T02:48:43.837Z,14.60
2019-05-21T02:51:12.511Z,14.70
2019-05-21T02:53:41.238Z,14.60
2019-05-21T02:56:10.087Z,14.60
2019-05-21T02:58:38.968Z,14.60
2019-05-21T03:04:39.283Z,14.60
2019-05-21T03:07:20.479Z,14.60
2019-05-21T03:09:49.796Z,14.60
2019-05-21T03:12:18.874Z,14.60
2019-05-21T03:14:47.936Z,14.60
2019-05-21T03:17:16.773Z,14.70
2019-05-21T03:19:45.652Z,14.70
2019-05-21T03:22:14.311Z,14.70
2019-05-21T03:24:43.070Z,14.80
2019-05-21T03:27:11.759Z,14.90
2019-05-21T03:29:40.503Z,15.10
2019-05-21T03:32:09.337Z,15.10
2019-05-21T03:34:37.980Z,15.20
2019-05-21T03:40:34.852Z,15.30
2019-05-21T03:43:03.730Z,15.30
2019-05-21T03:45:32.537Z,15.40
2019-05-21T03:48:01.346Z,15.40
2019-05-21T03:50:30.135Z,15.50
2019-05-21T03:52:58.820Z,15.60
2019-05-21T03:55:27.673Z,15.60
2019-05-21T03:57:56.316Z,15.60
2019-05-21T04:00:25.047Z,15.60
2019-05-21T04:02:53.799Z,15.50
2019-05-21T04:05:25.164Z,15.50
2019-05-21T04:07:56.806Z,15.50
2019-05-21T04:10:25.864Z,15.60
2019-05-21T04:13:09.981Z,15.60
2019-05-21T04:15:46.979Z,15.70
2019-05-21T04:18:23.240Z,15.70
2019-05-21T04:20:51.990Z,15.70
2019-05-21T04:23:20.877Z,15.80
2019-05-21T04:25:49.485Z,15.80
2019-05-21T04:28:18.187Z,15.90
2019-05-21T04:30:46.981Z,16.10
2019-05-21T04:33:15.829Z,16.20
2019-05-21T04:35:44.638Z,16.10
2019-05-21T04:38:14.404Z,15.90
2019-05-21T04:40:43.063Z,15.90
2019-05-21T04:43:11.782Z,15.80
2019-05-21T04:45:40.643Z,15.80
2019-05-21T04:48:09.376Z,15.80
2019-05-21T04:50:37.948Z,15.80
2019-05-21T04:53:06.800Z,15.80
2019-05-21T04:55:35.531Z,15.90
2019-05-21T04:58:04.459Z,16.00
2019-05-21T05:00:33.368Z,16.10
2019-05-21T05:03:01.954Z,16.80
2019-05-21T05:05:30.705Z,18.10
2019-05-21T05:08:18.749Z,19.10
2019-05-21T05:10:49.403Z,19.40
2019-05-21T05:13:18.102Z,19.40
2019-05-21T05:15:46.858Z,20.10
2019-05-21T05:18:15.662Z,20.80
2019-05-21T05:20:44.330Z,21.50
2019-05-21T05:23:13.021Z,22.00
2019-05-21T05:25:41.735Z,22.20
2019-05-21T05:28:10.458Z,23.20
2019-05-21T05:30:39.185Z,24.00
2019-05-21T05:33:08.005Z,24.40
2019-05-21T05:35:36.674Z,23.30
2019-05-21T05:38:05.464Z,24.10
2019-05-21T05:40:34.278Z,24.40
2019-05-21T05:43:02.947Z,24.50
2019-05-21T05:45:31.612Z,24.40
2019-05-21T05:48:00.250Z,24.20
2019-05-21T05:50:33.840Z,24.10
2019-05-21T05:53:02.555Z,24.10
2019-05-21T05:55:31.272Z,23.60
2019-05-21T05:58:00.009Z,25.00
2019-05-21T06:00:29.310Z,26.60
2019-05-21T06:02:58.009Z,27.60
2019-05-21T06:05:26.997Z,27.60
2019-05-21T06:07:59.915Z,27.70
2019-05-21T06:10:26.165Z,27.70
2019-05-21T06:12:54.786Z,27.50
2019-05-21T06:15:23.612Z,26.90
2019-05-21T06:17:52.378Z,27.40
2019-05-21T06:20:21.365Z,27.60
2019-05-21T06:22:50.090Z,26.10
2019-05-21T06:25:20.008Z,27.60
2019-05-21T06:27:48.707Z,28.70
2019-05-21T06:30:17.900Z,29.40
2019-05-21T06:32:46.668Z,29.00
2019-05-21T06:35:16.177Z,28.20
2019-05-21T06:37:44.803Z,28.00
2019-05-21T06:40:14.281Z,27.50
2019-05-21T06:42:43.096Z,26.60
2019-05-21T06:45:11.983Z,25.40
2019-05-21T06:47:40.608Z,24.10
2019-05-21T06:50:10.865Z,23.30
2019-05-21T06:52:39.682Z,23.10
2019-05-21T06:55:09.122Z,23.10
2019-05-21T06:57:37.984Z,23.20
2019-05-21T14:20:58.793Z,22.90
2019-05-21T14:23:27.560Z,22.90
2019-05-21T14:25:59.051Z,23.00
2019-05-21T14:28:27.809Z,23.00
2019-05-21T14:30:56.641Z,23.10
2019-05-21T14:33:25.419Z,23.00
2019-05-21T14:35:56.747Z,22.90
2019-05-21T14:38:25.710Z,22.90
2019-05-21T14:40:54.447Z,23.10
2019-05-21T14:43:24.995Z,23.10
2019-05-21T14:45:53.697Z,23.00
2019-05-21T14:48:22.458Z,22.90
2019-05-21T14:50:51.261Z,22.80
2019-05-21T14:53:19.979Z,22.70
2019-05-21T14:55:48.704Z,22.60
2019-05-21T14:58:17.589Z,22.50
2019-05-21T15:00:46.398Z,22.60
2019-05-21T15:03:25.018Z,22.80
2019-05-21T15:05:45.797Z,23.00
2019-05-21T15:08:14.583Z,23.10
2019-05-21T15:10:48.732Z,23.00
2019-05-21T15:13:13.909Z,23.00
2019-05-21T15:15:42.573Z,23.00
2019-05-21T15:18:19.605Z,22.80
2019-05-21T15:20:47.563Z,22.80
2019-05-21T15:23:16.255Z,22.80
2019-05-21T15:25:45.268Z,22.80
2019-05-21T15:28:15.575Z,22.70
2019-05-21T15:30:44.359Z,22.60
2019-05-21T15:33:13.357Z,22.50
2019-05-21T15:35:42.152Z,22.40
2019-05-21T15:38:10.992Z,22.20
2019-05-21T15:40:40.849Z,22.00
2019-05-21T15:43:13.992Z,21.80
2019-05-21T15:45:42.858Z,21.60
2019-05-21T15:48:11.512Z,21.40
2019-05-21T15:50:40.165Z,21.30
2019-05-21T15:53:08.984Z,21.20
2019-05-21T15:55:37.817Z,21.10
2019-05-21T15:58:06.481Z,21.20
2019-05-21T16:00:35.270Z,21.30
2019-05-21T16:03:04.125Z,21.30
2019-05-21T16:05:33.287Z,21.30
2019-05-21T16:08:02.328Z,21.20
2019-05-21T16:10:31.244Z,21.10
2019-05-21T16:13:02.172Z,21.00
2019-05-21T16:15:31.332Z,20.90
2019-05-21T16:18:00.115Z,20.90
2019-05-21T16:20:28.993Z,20.90
2019-05-21T16:22:57.681Z,20.80
2019-05-21T16:25:26.531Z,20.70
2019-05-21T16:27:55.246Z,20.60
2019-05-21T16:30:24.213Z,20.60
2019-05-21T16:32:54.532Z,20.50
2019-05-21T16:35:23.498Z,20.50
2019-05-21T16:37:52.271Z,20.40
2019-05-21T16:40:21.230Z,20.30
2019-05-21T16:42:50.337Z,20.20
2019-05-21T16:45:20.870Z,20.10
2019-05-21T16:47:55.765Z,20.10
2019-05-21T16:53:17.251Z,19.80
2019-05-21T16:55:47.698Z,19.60
2019-05-21T16:58:16.817Z,19.50
2019-05-21T17:00:45.640Z,19.50
2019-05-21T17:03:14.597Z,19.40
2019-05-21T17:05:43.538Z,19.40
2019-05-21T17:08:12.382Z,19.30
2019-05-21T17:10:41.311Z,19.30
2019-05-21T17:13:10.198Z,19.30
2019-05-21T17:15:39.031Z,19.30
2019-05-21T17:18:07.921Z,19.20
2019-05-21T17:20:36.904Z,19.20
2019-05-21T17:23:05.721Z,19.10
2019-05-21T17:25:36.923Z,19.00
2019-05-21T17:28:05.829Z,19.00
2019-05-21T17:30:34.749Z,18.90
2019-05-21T17:33:03.677Z,18.90
2019-05-21T17:35:36.362Z,18.90
2019-05-21T17:38:06.630Z,18.80
2019-05-21T17:40:38.692Z,18.80
2019-05-21T17:43:07.693Z,18.70
2019-05-21T17:45:39.384Z,18.70
2019-05-21T17:48:08.027Z,18.70
2019-05-21T17:50:36.897Z,18.60
2019-05-21T17:53:05.685Z,18.60
2019-05-21T17:55:34.634Z,18.50
2019-05-21T17:58:03.539Z,18.50
2019-05-21T18:00:33.912Z,18.50
2019-05-21T18:03:03.524Z,18.30
2019-05-21T18:05:32.512Z,18.20
2019-05-21T18:08:01.515Z,18.20
2019-05-21T18:10:30.789Z,18.00
2019-05-21T18:12:59.656Z,17.90
2019-05-21T18:15:28.363Z,17.80
2019-05-21T18:17:57.357Z,17.70
2019-05-21T18:20:26.647Z,17.50
2019-05-21T18:22:56.182Z,17.30
2019-05-21T18:25:25.039Z,17.30
2019-05-21T18:27:53.920Z,17.20
2019-05-21T18:30:23.314Z,17.10
2019-05-21T18:32:54.944Z,17.00
2019-05-21T18:35:23.768Z,16.90
2019-05-21T18:37:53.245Z,16.90
2019-05-21T18:40:22.089Z,16.80
2019-05-21T18:42:50.700Z,16.80
2019-05-21T18:45:19.585Z,16.80
2019-05-21T18:47:48.292Z,16.70
2019-05-21T18:50:17.245Z,16.60
2019-05-21T18:52:49.484Z,16.60
2019-05-21T18:55:16.986Z,16.50
2019-05-21T18:57:45.719Z,16.40
2019-05-21T19:00:16.730Z,16.30
2019-05-21T19:02:45.593Z,16.30
2019-05-21T19:05:14.586Z,16.20
2019-05-21T19:07:43.480Z,16.20
2019-05-21T19:10:13.078Z,16.10
2019-05-21T19:12:42.038Z,16.00
2019-05-21T19:15:11.432Z,16.00
2019-05-21T19:17:40.276Z,15.90
2019-05-21T19:20:11.227Z,15.80
2019-05-21T19:22:40.022Z,15.80
2019-05-21T19:25:08.914Z,15.70
2019-05-21T19:27:37.921Z,15.70
2019-05-21T19:30:08.014Z,15.60
2019-05-21T19:32:36.760Z,15.50
2019-05-21T19:35:07.375Z,15.50
2019-05-21T19:37:36.258Z,15.50
2019-05-21T19:40:08.076Z,15.40
2019-05-21T19:42:36.797Z,15.30
2019-05-21T19:45:07.115Z,15.30
2019-05-21T19:47:35.842Z,15.30
2019-05-21T19:50:09.474Z,15.30
2019-05-21T19:52:38.236Z,15.20
2019-05-21T19:55:07.791Z,15.20
2019-05-21T19:57:39.355Z,15.20
2019-05-21T20:00:08.610Z,15.10
2019-05-21T20:02:37.527Z,15.00
2019-05-21T20:05:08.282Z,14.90
2019-05-21T20:07:37.033Z,14.80
2019-05-21T20:10:07.846Z,14.80
2019-05-21T20:12:37.324Z,14.70
2019-05-21T20:15:07.478Z,14.60
2019-05-21T20:17:37.966Z,14.50
2019-05-21T20:20:09.700Z,14.50
2019-05-21T20:22:40.008Z,14.40
2019-05-21T20:25:10.246Z,14.30
2019-05-21T20:27:39.307Z,14.30
2019-05-21T20:30:13.198Z,14.20
2019-05-21T20:32:43.272Z,14.20
2019-05-21T20:35:14.424Z,14.10
2019-05-21T20:37:44.085Z,14.10
2019-05-21T20:40:13.724Z,14.00
2019-05-21T20:42:44.919Z,14.00
2019-05-21T20:45:15.647Z,13.90
2019-05-21T20:47:45.833Z,13.90
2019-05-21T20:50:16.984Z,13.90
2019-05-21T20:52:45.765Z,13.80
2019-05-21T20:55:17.341Z,13.70
2019-05-21T20:57:46.142Z,13.70
2019-05-21T21:00:18.096Z,13.60
2019-05-21T21:02:47.202Z,13.60
2019-05-21T21:05:16.895Z,13.50
2019-05-21T21:07:45.732Z,13.50
2019-05-21T21:10:15.084Z,13.50
2019-05-21T21:12:44.850Z,13.40
2019-05-21T21:15:17.052Z,13.40
2019-05-21T21:17:45.858Z,13.30
2019-05-21T21:20:14.681Z,13.30
2019-05-21T21:22:43.908Z,13.30
2019-05-21T21:25:14.436Z,13.20
2019-05-21T21:28:53.692Z,13.20
2019-05-21T21:30:19.829Z,13.20
2019-05-21T21:33:01.568Z,13.20
2019-05-21T21:35:30.873Z,13.20
2019-05-21T21:38:08.930Z,13.20
2019-05-21T21:40:38.051Z,13.20
2019-05-21T21:43:08.152Z,13.10
2019-05-21T21:45:37.873Z,13.10
2019-05-21T21:48:08.048Z,13.20
2019-05-21T21:50:37.812Z,13.20
2019-05-21T21:53:18.057Z,13.20
2019-05-21T21:56:19.991Z,13.20
2019-05-21T21:58:44.913Z,13.20
2019-05-21T22:01:26.195Z,13.20
2019-05-21T22:03:57.795Z,13.20
2019-05-21T22:06:29.159Z,13.20
2019-05-21T22:08:58.418Z,13.20
2019-05-21T22:11:27.502Z,13.10
2019-05-21T22:13:56.288Z,13.00
2019-05-21T22:16:25.051Z,13.00
2019-05-21T22:18:54.975Z,13.00
2019-05-21T22:21:24.091Z,12.90
2019-05-21T22:23:53.303Z,12.90
2019-05-21T22:26:22.293Z,12.80
2019-05-21T22:28:51.559Z,12.80
2019-05-21T22:31:20.343Z,12.80
2019-05-21T22:33:49.086Z,12.70
2019-05-21T22:36:17.952Z,12.60
2019-05-21T22:38:48.813Z,12.70
2019-05-21T22:41:17.672Z,12.70
2019-05-21T22:43:46.465Z,12.70
2019-05-21T22:46:15.250Z,12.70
2019-05-21T22:48:44.828Z,12.70
2019-05-21T22:51:13.597Z,12.70
2019-05-21T22:53:42.505Z,12.80
2019-05-21T22:56:13.585Z,12.90
2019-05-21T22:58:42.549Z,13.00
2019-05-21T23:01:11.825Z,13.00
2019-05-21T23:03:40.906Z,13.00
2019-05-21T23:06:09.924Z,13.00
2019-05-21T23:08:39.292Z,12.90
2019-05-21T23:11:08.112Z,12.90
2019-05-21T23:13:36.927Z,12.90
2019-05-21T23:16:06.584Z,12.90
2019-05-21T23:18:35.378Z,12.80
2019-05-21T23:21:07.141Z,12.80
2019-05-21T23:23:37.982Z,12.70
2019-05-21T23:26:08.298Z,12.70
2019-05-21T23:28:37.887Z,12.70
2019-05-21T23:31:08.705Z,12.60
2019-05-21T23:33:37.544Z,12.60
2019-05-21T23:36:06.722Z,12.50
2019-05-21T23:38:36.869Z,12.40
2019-05-21T23:41:06.144Z,12.40
2019-05-21T23:43:36.635Z,12.30
2019-05-21T23:46:06.451Z,12.30
2019-05-21T23:48:35.784Z,12.30
2019-05-21T23:51:04.624Z,12.30
2019-05-21T23:53:33.357Z,12.30
2019-05-21T23:56:02.200Z,12.20
2019-05-21T23:58:31.073Z,12.20
